Time;durP1;ratioP1;P1;durP2;ratioP2;P2;SDS_P1;SDS_P2;PMS_P1;PMS_P2;Temp;Humidity;BMP_temperature;BMP_pressure;BME280_temperature;BME280_humidity;BME280_pressure;Samples;Min_cycle;Max_cycle;Signal;HPM_P1;HPM_P2
2023/03/02 04:00:52;;;;;;;58.38;24.92;;;2.60;99.90;;;;;;6276621;22;19922;-77
2023/03/02 04:03:18;;;;;;;56.90;23.30;;;2.60;99.90;;;;;;6281337;22;20332;-79
2023/03/02 04:05:45;;;;;;;63.05;24.05;;;2.60;99.90;;;;;;6308734;22;20097;-78
2023/03/02 04:08:10;;;;;;;67.32;25.55;;;2.60;99.90;;;;;;6282136;22;20320;-77
2023/03/02 04:10:36;;;;;;;65.63;25.60;;;2.60;99.90;;;;;;6255824;22;20015;-77
2023/03/02 04:13:02;;;;;;;62.55;25.27;;;2.60;99.90;;;;;;6281160;22;20019;-77
2023/03/02 04:15:28;;;;;;;61.42;25.25;;;2.60;99.90;;;;;;6281451;22;20034;-77
2023/03/02 04:17:53;;;;;;;62.05;25.40;;;2.60;99.90;;;;;;6281352;22;20045;-77
2023/03/02 04:20:20;;;;;;;63.90;26.33;;;2.60;99.90;;;;;;6280993;22;20015;-77
2023/03/02 04:22:48;;;;;;;62.47;25.75;;;2.60;99.90;;;;;;6281212;22;20474;-77
2023/03/02 04:25:18;;;;;;;65.32;25.73;;;2.60;99.90;;;;;;6281304;22;20011;-77
2023/03/02 04:27:45;;;;;;;58.33;24.67;;;2.60;99.90;;;;;;6281242;22;20012;-77
2023/03/02 04:30:11;;;;;;;63.22;24.38;;;2.60;99.90;;;;;;6308852;22;20007;-79
2023/03/02 04:32:37;;;;;;;62.67;25.08;;;2.60;99.90;;;;;;6255543;22;20012;-77
2023/03/02 04:35:03;;;;;;;64.47;24.52;;;2.50;99.90;;;;;;6280735;22;20014;-78
2023/03/02 04:37:30;;;;;;;62.20;23.88;;;2.50;99.90;;;;;;6280844;22;20045;-77
2023/03/02 04:39:56;;;;;;;61.03;23.95;;;2.50;99.90;;;;;;6280859;22;20018;-77
2023/03/02 04:42:22;;;;;;;64.05;24.13;;;2.50;99.90;;;;;;6255145;22;20015;-79
2023/03/02 04:44:48;;;;;;;66.57;26.45;;;2.50;99.90;;;;;;6280793;22;20007;-77
2023/03/02 04:47:14;;;;;;;62.00;24.48;;;2.50;99.90;;;;;;6280801;22;20043;-77
2023/03/02 04:49:40;;;;;;;57.97;23.83;;;2.50;99.90;;;;;;6280908;22;20078;-77
2023/03/02 04:52:06;;;;;;;60.45;23.13;;;2.50;99.90;;;;;;6280800;22;20058;-77
2023/03/02 04:54:32;;;;;;;61.88;23.98;;;2.50;99.90;;;;;;6280801;22;20015;-77
2023/03/02 04:56:58;;;;;;;57.15;23.23;;;2.50;99.90;;;;;;6280663;22;20011;-77
2023/03/02 04:59:27;;;;;;;60.30;24.13;;;2.50;99.90;;;;;;6281642;22;20073;-78
2023/03/02 05:01:56;;;;;;;63.85;23.02;;;2.50;99.90;;;;;;6254798;22;20069;-77
2023/03/02 05:04:22;;;;;;;64.05;24.23;;;2.50;99.90;;;;;;6280690;22;20088;-80
2023/03/02 05:06:47;;;;;;;71.90;24.45;;;2.50;99.90;;;;;;6280709;22;20007;-78
2023/03/02 05:09:13;;;;;;;66.35;24.10;;;2.40;99.90;;;;;;6308643;22;20003;-77
2023/03/02 05:11:39;;;;;;;72.50;25.27;;;2.40;99.90;;;;;;6280806;22;20037;-77
2023/03/02 05:14:07;;;;;;;76.78;23.20;;;2.40;99.90;;;;;;6308353;22;20015;-78
2023/03/02 05:16:36;;;;;;;82.03;22.60;;;2.30;99.90;;;;;;6308144;22;20054;-77
2023/03/02 05:19:04;;;;;;;77.35;23.23;;;2.30;99.90;;;;;;6307388;22;20022;-77
2023/03/02 05:21:30;;;;;;;71.82;24.42;;;2.30;99.90;;;;;;6280458;22;20015;-79
2023/03/02 05:23:56;;;;;;;79.65;22.58;;;2.30;99.90;;;;;;6280418;22;20082;-77
2023/03/02 05:26:22;;;;;;;64.70;23.05;;;2.20;99.90;;;;;;6280435;22;20016;-77
2023/03/02 05:28:48;;;;;;;65.88;22.02;;;2.20;99.90;;;;;;6280766;22;20314;-76
2023/03/02 05:31:20;;;;;;;70.38;23.90;;;2.20;99.90;;;;;;6308217;22;20022;-77
2023/03/02 05:33:46;;;;;;;57.53;23.42;;;2.20;99.90;;;;;;6280541;22;20019;-77
2023/03/02 05:36:11;;;;;;;77.05;23.88;;;2.10;99.90;;;;;;6280453;22;20054;-77
2023/03/02 05:38:37;;;;;;;69.60;24.55;;;2.10;99.90;;;;;;6308335;22;20015;-79
2023/03/02 05:41:03;;;;;;;63.72;22.13;;;2.10;99.90;;;;;;6280447;22;20012;-78
2023/03/02 05:43:29;;;;;;;66.47;22.25;;;2.10;99.90;;;;;;6307603;22;20140;-78
2023/03/02 05:45:59;;;;;;;82.38;22.58;;;2.10;99.90;;;;;;6280245;22;20015;-77
2023/03/02 05:48:26;;;;;;;71.70;24.25;;;2.00;99.90;;;;;;6306252;22;20037;-77
2023/03/02 05:50:52;;;;;;;71.82;23.85;;;2.00;99.90;;;;;;6307952;22;20453;-78
2023/03/02 05:53:17;;;;;;;66.15;22.80;;;2.00;99.90;;;;;;6280641;22;20038;-77
2023/03/02 05:55:43;;;;;;;61.00;23.17;;;2.00;99.90;;;;;;6280202;22;20017;-76
2023/03/02 05:58:13;;;;;;;61.92;23.58;;;1.90;99.90;;;;;;6280340;22;20053;-78
2023/03/02 06:00:39;;;;;;;82.47;24.45;;;2.00;99.90;;;;;;6254533;22;20456;-78
2023/03/02 06:03:05;;;;;;;81.55;24.55;;;1.90;99.90;;;;;;6280635;22;20137;-77
2023/03/02 06:05:31;;;;;;;74.63;25.10;;;1.90;99.90;;;;;;6280352;22;20428;-78
2023/03/02 06:07:56;;;;;;;88.07;25.33;;;2.00;99.90;;;;;;6280014;22;20018;-77
2023/03/02 06:10:22;;;;;;;83.25;26.13;;;2.00;99.90;;;;;;6280040;22;20118;-79
2023/03/02 06:12:48;;;;;;;88.22;26.20;;;2.00;99.90;;;;;;6254545;22;20014;-78
2023/03/02 06:15:14;;;;;;;77.95;26.25;;;2.00;99.90;;;;;;6307575;22;20372;-76
2023/03/02 06:17:42;;;;;;;93.97;26.67;;;2.00;99.90;;;;;;6280278;22;20012;-77
2023/03/02 06:20:09;;;;;;;85.63;28.40;;;2.00;99.90;;;;;;6279907;22;20332;-78
2023/03/02 06:22:40;;;;;;;97.88;27.50;;;2.00;99.90;;;;;;6279824;22;20442;-77
2023/03/02 06:25:08;;;;;;;101.70;28.27;;;2.10;99.90;;;;;;6307359;22;20431;-79
2023/03/02 06:27:34;;;;;;;79.15;27.15;;;2.10;99.90;;;;;;6307937;22;20011;-79
2023/03/02 06:29:59;;;;;;;86.97;26.33;;;2.10;99.90;;;;;;6307631;22;20015;-77
2023/03/02 06:32:25;;;;;;;71.15;26.95;;;2.10;99.90;;;;;;6280270;22;20022;-77
2023/03/02 06:34:51;;;;;;;76.75;27.50;;;2.10;99.90;;;;;;6280197;22;20348;-77
2023/03/02 06:37:16;;;;;;;78.22;26.92;;;2.10;99.90;;;;;;6280492;22;20014;-78
2023/03/02 06:39:42;;;;;;;76.07;26.60;;;2.10;99.90;;;;;;6307462;22;20011;-78
2023/03/02 06:42:08;;;;;;;80.00;25.88;;;2.10;99.90;;;;;;6280028;22;20011;-77
2023/03/02 06:44:33;;;;;;;96.07;29.27;;;2.10;99.90;;;;;;6254576;22;20337;-77
2023/03/02 06:46:59;;;;;;;86.70;28.13;;;2.10;99.90;;;;;;6279881;22;20079;-77
2023/03/02 06:49:25;;;;;;;95.97;28.80;;;2.10;99.90;;;;;;6279973;22;20015;-77
2023/03/02 06:51:50;;;;;;;77.97;26.77;;;2.10;99.90;;;;;;6279595;22;20011;-77
2023/03/02 06:54:16;;;;;;;82.13;27.42;;;2.10;99.90;;;;;;6254678;22;20011;-79
2023/03/02 06:56:41;;;;;;;88.10;26.98;;;2.10;99.90;;;;;;6254763;22;20063;-77
2023/03/02 06:59:07;;;;;;;94.68;28.52;;;2.10;99.90;;;;;;6283677;22;20042;-76
2023/03/02 07:01:34;;;;;;;94.15;28.85;;;2.10;99.90;;;;;;6283883;22;20016;-77
2023/03/02 07:04:01;;;;;;;93.75;28.80;;;2.10;99.90;;;;;;6285481;22;20012;-75
2023/03/02 07:06:26;;;;;;;94.80;28.27;;;2.10;99.90;;;;;;6298170;22;20012;-76
2023/03/02 07:08:52;;;;;;;99.90;28.17;;;2.10;99.90;;;;;;6287505;22;20018;-78
2023/03/02 07:11:18;;;;;;;104.60;28.98;;;2.10;99.90;;;;;;6278384;22;20114;-78
2023/03/02 07:13:43;;;;;;;100.47;28.77;;;2.20;99.90;;;;;;6277095;22;20008;-77
2023/03/02 07:16:11;;;;;;;92.63;28.85;;;2.10;99.90;;;;;;6249916;22;20012;-78
2023/03/02 07:18:37;;;;;;;87.55;25.95;;;2.20;99.90;;;;;;6275731;22;20079;-78
2023/03/02 07:21:03;;;;;;;81.55;24.77;;;2.20;99.90;;;;;;6275568;22;20430;-79
2023/03/02 07:23:29;;;;;;;101.15;26.42;;;2.10;99.90;;;;;;6275320;22;20060;-78
2023/03/02 07:25:55;;;;;;;88.45;26.33;;;2.10;99.90;;;;;;6276902;22;20087;-78
2023/03/02 07:28:23;;;;;;;99.20;28.13;;;2.10;99.90;;;;;;6276753;22;20012;-78
2023/03/02 07:30:49;;;;;;;93.57;26.25;;;2.10;99.90;;;;;;6276502;22;20065;-77
2023/03/02 07:33:15;;;;;;;79.78;24.15;;;2.10;99.90;;;;;;6249195;22;20019;-77
2023/03/02 07:35:40;;;;;;;78.88;25.88;;;2.10;99.90;;;;;;6274510;22;20392;-77
2023/03/02 07:38:08;;;;;;;80.05;24.08;;;2.20;99.90;;;;;;6274875;22;20016;-77
2023/03/02 07:40:36;;;;;;;81.55;25.25;;;2.20;99.90;;;;;;6276925;22;20008;-78
2023/03/02 07:43:02;;;;;;;102.43;29.42;;;2.20;99.90;;;;;;6278653;22;20014;-77
2023/03/02 07:45:27;;;;;;;102.03;28.20;;;2.20;99.90;;;;;;6276876;22;20356;-77
2023/03/02 07:47:53;;;;;;;85.07;25.38;;;2.20;99.90;;;;;;6277077;22;20086;-78
2023/03/02 07:50:18;;;;;;;82.65;25.50;;;2.20;99.90;;;;;;6276692;22;20086;-78
2023/03/02 07:52:44;;;;;;;83.93;25.88;;;2.20;99.90;;;;;;6276632;22;20095;-77
2023/03/02 07:55:10;;;;;;;100.43;26.42;;;2.30;99.90;;;;;;6276690;22;20039;-76
2023/03/02 07:57:35;;;;;;;92.13;27.77;;;2.30;99.90;;;;;;6276660;22;20020;-78
2023/03/02 08:00:02;;;;;;;99.15;29.17;;;2.30;99.90;;;;;;6278365;22;20012;-77
2023/03/02 08:02:27;;;;;;;98.18;28.77;;;2.30;99.90;;;;;;6306261;22;20038;-78
2023/03/02 08:04:53;;;;;;;87.38;27.77;;;2.40;99.90;;;;;;6281727;22;20379;-76
2023/03/02 08:07:19;;;;;;;88.55;27.27;;;2.40;99.90;;;;;;6281679;22;20011;-78
2023/03/02 08:09:44;;;;;;;73.13;25.02;;;2.40;99.90;;;;;;6281754;22;20015;-78
2023/03/02 08:12:10;;;;;;;75.85;25.10;;;2.40;99.90;;;;;;6308897;22;20007;-76
2023/03/02 08:14:36;;;;;;;78.80;23.52;;;2.50;99.90;;;;;;6281773;22;20011;-78
2023/03/02 08:17:04;;;;;;;73.47;23.83;;;2.50;99.90;;;;;;6281679;22;20041;-78
2023/03/02 08:19:29;;;;;;;80.38;26.00;;;2.40;99.90;;;;;;6281521;22;20019;-77
2023/03/02 08:21:55;;;;;;;76.32;25.40;;;2.50;99.90;;;;;;6308564;22;20077;-77
2023/03/02 08:24:21;;;;;;;73.93;25.98;;;2.50;99.90;;;;;;6281420;22;20310;-78
2023/03/02 08:26:46;;;;;;;72.95;24.05;;;2.50;99.90;;;;;;6308989;22;20034;-77
2023/03/02 08:29:12;;;;;;;70.25;24.85;;;2.50;99.90;;;;;;6308560;22;20047;-77
2023/03/02 08:31:38;;;;;;;63.38;23.98;;;2.60;99.90;;;;;;6281957;22;20069;-78
2023/03/02 08:34:03;;;;;;;65.00;22.92;;;2.60;99.90;;;;;;6281814;22;20018;-78
2023/03/02 08:36:29;;;;;;;62.10;22.98;;;2.60;99.90;;;;;;6281674;22;20015;-79
2023/03/02 08:38:54;;;;;;;70.72;23.42;;;2.60;99.90;;;;;;6281386;22;20390;-77
2023/03/02 08:41:22;;;;;;;65.95;23.45;;;2.70;99.90;;;;;;6255410;22;20408;-78
2023/03/02 08:43:48;;;;;;;65.72;23.80;;;2.70;99.90;;;;;;6281112;22;20018;-78
2023/03/02 08:46:16;;;;;;;68.38;25.08;;;2.70;99.90;;;;;;6281310;22;20022;-77
2023/03/02 08:48:42;;;;;;;64.05;24.67;;;2.70;99.90;;;;;;6308435;22;20062;-78
2023/03/02 08:51:17;;;;;;;62.42;23.58;;;2.80;99.90;;;;;;6308684;22;20011;-78
2023/03/02 08:53:46;;;;;;;64.32;24.33;;;2.90;99.90;;;;;;6281397;22;20011;-78
2023/03/02 08:56:20;;;;;;;66.47;24.42;;;2.90;99.90;;;;;;6281148;22;20383;-77
2023/03/02 08:58:48;;;;;;;69.53;24.67;;;2.90;99.90;;;;;;6281238;22;20019;-78
2023/03/02 09:01:18;;;;;;;61.90;24.42;;;2.90;99.90;;;;;;6308435;22;20250;-78
2023/03/02 09:03:44;;;;;;;60.72;23.90;;;2.90;99.90;;;;;;6281236;22;20019;-78
2023/03/02 09:06:10;;;;;;;58.88;22.50;;;3.00;99.90;;;;;;6309173;22;20007;-78
2023/03/02 09:08:36;;;;;;;53.17;22.15;;;3.10;99.90;;;;;;6281728;22;20517;-77
2023/03/02 09:11:02;;;;;;;52.72;23.02;;;3.20;99.90;;;;;;6281308;22;20011;-79
2023/03/02 09:13:28;;;;;;;60.55;24.23;;;3.30;99.90;;;;;;6281480;22;20022;-78
2023/03/02 09:15:53;;;;;;;56.50;23.45;;;3.30;99.90;;;;;;6309044;22;20332;-78
2023/03/02 09:18:19;;;;;;;53.75;21.90;;;3.40;99.90;;;;;;6308578;22;20007;-77
2023/03/02 09:20:49;;;;;;;52.60;22.33;;;3.50;99.90;;;;;;6308039;22;20023;-78
2023/03/02 09:23:15;;;;;;;50.67;21.10;;;3.50;99.90;;;;;;6308365;22;20428;-78
2023/03/02 09:25:40;;;;;;;49.33;21.83;;;3.60;99.90;;;;;;6281268;22;20012;-77
2023/03/02 09:28:06;;;;;;;51.55;23.23;;;3.60;99.90;;;;;;6255609;22;20018;-79
2023/03/02 09:30:32;;;;;;;46.45;22.13;;;3.60;99.90;;;;;;6280826;22;20321;-78
2023/03/02 09:32:57;;;;;;;45.80;20.83;;;3.70;99.90;;;;;;6280938;22;20064;-77
2023/03/02 09:35:23;;;;;;;42.45;20.33;;;3.70;99.90;;;;;;6255757;22;20021;-79
2023/03/02 09:37:49;;;;;;;51.58;22.13;;;3.80;99.90;;;;;;6281092;22;20019;-79
2023/03/02 09:40:21;;;;;;;46.30;21.92;;;3.80;99.90;;;;;;6308167;22;20080;-80
2023/03/02 09:42:59;;;;;;;49.55;22.23;;;3.90;99.90;;;;;;6281946;22;20007;-79
2023/03/02 09:45:46;;;;;;;50.50;21.90;;;3.90;99.90;;;;;;6281419;22;20026;-78
2023/03/02 09:48:30;;;;;;;49.65;22.55;;;3.90;99.90;;;;;;6255824;22;20448;-79
2023/03/02 09:51:19;;;;;;;48.35;21.85;;;3.90;99.90;;;;;;6309743;22;20309;-79
2023/03/02 09:54:06;;;;;;;49.03;21.85;;;3.90;99.90;;;;;;6281586;22;20361;-78
2023/03/02 09:56:36;;;;;;;48.72;21.67;;;3.90;99.90;;;;;;6281812;22;20037;-79
2023/03/02 09:59:26;;;;;;;49.13;21.63;;;3.90;99.90;;;;;;6281328;22;20019;-78
2023/03/02 10:02:00;;;;;;;53.88;23.40;;;3.90;99.90;;;;;;6275882;22;20011;-79
2023/03/02 10:04:37;;;;;;;42.05;19.40;;;4.00;99.90;;;;;;6275616;22;20011;-78
2023/03/02 10:07:12;;;;;;;40.38;20.42;;;4.00;99.90;;;;;;6250714;22;20093;-79
2023/03/02 10:09:39;;;;;;;40.38;20.10;;;4.10;99.90;;;;;;6278422;22;20029;-79
2023/03/02 10:12:49;;;;;;;38.67;19.75;;;4.10;99.90;;;;;;6275564;22;20015;-78
2023/03/02 10:15:24;;;;;;;39.58;20.20;;;4.10;99.90;;;;;;6250908;22;20046;-79
2023/03/02 10:17:59;;;;;;;38.58;19.20;;;4.20;99.90;;;;;;6278620;22;20299;-79
2023/03/02 10:20:41;;;;;;;39.88;20.13;;;4.20;99.90;;;;;;6250604;22;20016;-78
2023/03/02 10:23:09;;;;;;;39.22;18.85;;;4.30;99.90;;;;;;6275992;22;20039;-78
2023/03/02 10:25:51;;;;;;;38.00;18.77;;;4.30;99.90;;;;;;6276080;22;20015;-78
2023/03/02 10:28:20;;;;;;;37.10;19.08;;;4.40;99.90;;;;;;6276125;22;20011;-78
2023/03/02 10:31:05;;;;;;;39.08;19.95;;;4.50;99.90;;;;;;6277428;22;20007;-79
2023/03/02 10:33:32;;;;;;;38.45;19.98;;;4.70;99.90;;;;;;6275858;22;20429;-80
2023/03/02 10:35:59;;;;;;;37.53;19.25;;;4.80;99.90;;;;;;6277376;22;20007;-79
2023/03/02 10:38:28;;;;;;;39.13;20.00;;;4.90;99.90;;;;;;6275308;22;20023;-79
2023/03/02 10:40:58;;;;;;;38.03;19.48;;;5.00;99.90;;;;;;6275396;22;20019;-78
2023/03/02 10:43:33;;;;;;;37.28;19.50;;;5.10;99.90;;;;;;6275782;22;20007;-78
2023/03/02 10:46:04;;;;;;;36.70;19.45;;;5.10;99.90;;;;;;6275712;22;20041;-79
2023/03/02 10:48:29;;;;;;;39.60;19.30;;;5.10;99.90;;;;;;6275906;22;20012;-80
2023/03/02 10:50:57;;;;;;;36.80;19.13;;;5.00;99.90;;;;;;6275638;22;20019;-78
2023/03/02 10:53:23;;;;;;;38.35;19.58;;;5.00;99.90;;;;;;6275978;22;20345;-79
2023/03/02 10:55:51;;;;;;;37.15;20.15;;;4.90;99.90;;;;;;6277568;22;20022;-78
2023/03/02 10:58:20;;;;;;;37.17;19.98;;;4.90;99.90;;;;;;6250641;22;20039;-78
2023/03/02 11:01:06;;;;;;;38.60;20.33;;;4.90;99.90;;;;;;6275367;22;20019;-80
2023/03/02 11:03:32;;;;;;;;;;;4.90;99.90;;;;;;6251596;22;20019;-79
2023/03/02 11:05:59;;;;;;;;;;;5.00;99.90;;;;;;6277716;22;19911;-80
2023/03/02 11:08:27;;;;;;;36.60;18.73;;;5.00;99.90;;;;;;6275289;22;19915;-79
2023/03/02 11:10:58;;;;;;;36.90;18.80;;;5.10;99.90;;;;;;6224988;22;20026;-79
2023/03/02 11:13:34;;;;;;;32.85;17.30;;;5.20;99.90;;;;;;6275920;22;20017;-79
2023/03/02 11:16:00;;;;;;;;;;;5.20;99.90;;;;;;6278967;22;20061;-79
2023/03/02 11:18:35;;;;;;;36.55;19.10;;;5.20;99.90;;;;;;6278019;22;19911;-79
2023/03/02 11:21:27;;;;;;;37.42;19.52;;;5.20;99.90;;;;;;6278452;22;20019;-80
2023/03/02 11:24:05;;;;;;;35.47;18.10;;;5.30;99.90;;;;;;6243439;22;20087;-79
2023/03/02 11:26:49;;;;;;;34.17;17.70;;;5.40;99.90;;;;;;6277131;22;20007;-78
2023/03/02 11:29:36;;;;;;;36.92;18.65;;;5.60;99.90;;;;;;6277834;22;20610;-78
2023/03/02 11:32:14;;;;;;;33.88;17.85;;;5.70;99.90;;;;;;6277564;22;20016;-79
2023/03/02 11:34:49;;;;;;;32.78;17.60;;;5.80;99.90;;;;;;6277660;22;20016;-79
2023/03/02 11:37:19;;;;;;;33.53;18.60;;;5.80;99.90;;;;;;6252024;22;20089;-79
2023/03/02 11:39:48;;;;;;;33.67;18.85;;;5.90;99.90;;;;;;6284289;22;20043;-79
2023/03/02 11:42:39;;;;;;;36.63;18.92;;;6.00;99.90;;;;;;6284894;22;20472;-78
2023/03/02 11:45:18;;;;;;;30.42;16.88;;;6.00;99.90;;;;;;6289035;22;20020;-79
2023/03/02 11:47:52;;;;;;;33.45;18.38;;;6.00;99.90;;;;;;6299934;22;20019;-78
2023/03/02 11:50:18;;;;;;;30.83;17.15;;;6.20;99.90;;;;;;6254815;22;20012;-78
2023/03/02 11:52:50;;;;;;;30.75;16.40;;;6.50;99.90;;;;;;6279226;22;20008;-79
2023/03/02 11:55:24;;;;;;;32.47;17.05;;;6.80;99.90;;;;;;6279091;22;20012;-83
2023/03/02 11:57:53;;;;;;;33.45;18.20;;;6.90;99.90;;;;;;6252879;22;20008;-78
2023/03/02 12:00:27;;;;;;;28.13;16.73;;;7.30;99.90;;;;;;6280290;22;20012;-78
2023/03/02 12:03:21;;;;;;;28.67;16.37;;;7.60;99.90;;;;;;6282829;22;20057;-79
2023/03/02 12:05:50;;;;;;;31.10;17.00;;;8.00;99.90;;;;;;6278481;22;20333;-79
2023/03/02 12:08:19;;;;;;;27.83;16.08;;;8.30;99.90;;;;;;6282620;22;20014;-79
2023/03/02 12:11:18;;;;;;;26.67;15.40;;;8.60;99.90;;;;;;6281995;22;20384;-80
2023/03/02 12:13:53;;;;;;;27.52;14.93;;;8.80;99.90;;;;;;6280096;22;20095;-79
2023/03/02 12:16:22;;;;;;;28.87;16.27;;;9.10;99.90;;;;;;6309378;22;20011;-79
2023/03/02 12:18:50;;;;;;;25.15;15.95;;;9.20;99.90;;;;;;6282063;22;20010;-79
2023/03/02 12:21:19;;;;;;;25.50;15.57;;;9.20;99.90;;;;;;6309293;22;20090;-79
2023/03/02 12:23:48;;;;;;;26.05;15.52;;;9.40;99.90;;;;;;6281763;22;20011;-79
2023/03/02 12:26:19;;;;;;;25.80;15.80;;;9.60;99.90;;;;;;6281874;22;20018;-79
2023/03/02 12:29:09;;;;;;;28.17;15.77;;;9.90;99.90;;;;;;6281820;22;20412;-80
2023/03/02 12:31:55;;;;;;;28.08;15.05;;;10.10;99.90;;;;;;6281765;22;20015;-80
2023/03/02 12:34:23;;;;;;;27.60;15.07;;;10.50;99.90;;;;;;6309298;22;20034;-79
2023/03/02 12:36:53;;;;;;;24.48;14.65;;;10.70;99.90;;;;;;6282561;22;20374;-82
2023/03/02 12:39:41;;;;;;;26.33;14.95;;;10.90;99.90;;;;;;6310455;22;20015;-81
2023/03/02 12:42:37;;;;;;;25.27;14.75;;;11.00;99.90;;;;;;6281772;22;20018;-81
2023/03/02 12:45:12;;;;;;;24.25;14.55;;;11.00;99.90;;;;;;6282815;22;20325;-80
2023/03/02 12:47:42;;;;;;;24.88;13.93;;;10.90;99.90;;;;;;6281809;22;20059;-80
2023/03/02 12:50:22;;;;;;;24.23;14.98;;;11.00;99.90;;;;;;6282211;22;20306;-79
2023/03/02 12:53:05;;;;;;;22.58;13.55;;;11.00;99.90;;;;;;6256947;22;20007;-79
2023/03/02 12:55:33;;;;;;;24.58;13.77;;;11.10;99.90;;;;;;6281849;22;20072;-79
2023/03/02 12:58:00;;;;;;;22.38;13.63;;;11.60;99.90;;;;;;6282241;22;20011;-79
2023/03/02 13:00:32;;;;;;;21.17;13.10;;;11.90;99.90;;;;;;6281290;22;20015;-79
2023/03/02 13:03:00;;;;;;;21.40;12.90;;;12.10;99.90;;;;;;6281988;22;20328;-79
2023/03/02 13:05:29;;;;;;;26.45;16.52;;;12.00;99.90;;;;;;6309566;22;20038;-80
2023/03/02 13:07:54;;;;;;;23.63;13.48;;;11.90;99.90;;;;;;6309403;22;20039;-78
2023/03/02 13:10:26;;;;;;;21.42;13.15;;;11.90;99.90;;;;;;6281457;22;20011;-79
2023/03/02 13:12:52;;;;;;;20.60;12.02;;;12.00;99.90;;;;;;6309327;22;20018;-79
2023/03/02 13:15:18;;;;;;;18.67;11.57;;;12.00;99.90;;;;;;6281823;22;20011;-79
2023/03/02 13:17:51;;;;;;;21.10;12.02;;;12.10;99.90;;;;;;6281825;22;20007;-79
2023/03/02 13:20:19;;;;;;;18.10;10.98;;;12.20;99.90;;;;;;6281268;22;20014;-79
2023/03/02 13:22:44;;;;;;;19.80;11.65;;;12.20;99.90;;;;;;6308913;22;20012;-80
2023/03/02 13:25:26;;;;;;;17.77;10.90;;;12.40;99.90;;;;;;6281584;22;20065;-79
2023/03/02 13:27:54;;;;;;;21.45;12.73;;;12.50;99.90;;;;;;6281657;22;20050;-79
2023/03/02 13:30:26;;;;;;;19.65;12.00;;;12.50;99.90;;;;;;6281261;22;20038;-80
2023/03/02 13:33:12;;;;;;;20.92;11.77;;;12.50;99.90;;;;;;6309060;22;20003;-79
2023/03/02 13:35:44;;;;;;;19.88;10.90;;;12.60;99.90;;;;;;6256197;22;20008;-79
2023/03/02 13:38:36;;;;;;;18.67;11.07;;;12.60;99.90;;;;;;6281267;22;20134;-79
2023/03/02 13:41:02;;;;;;;19.75;10.68;;;12.50;99.90;;;;;;6270389;22;20094;-78
2023/03/02 13:43:28;;;;;;;17.33;10.15;;;12.50;99.90;;;;;;6281265;22;20070;-79
2023/03/02 13:46:25;;;;;;;16.00;9.77;;;12.60;99.90;;;;;;6281713;22;20011;-79
2023/03/02 13:48:58;;;;;;;17.02;9.40;;;12.60;99.90;;;;;;6257955;22;20466;-78
2023/03/02 13:51:28;;;;;;;15.82;8.93;;;12.60;99.90;;;;;;6281008;22;20015;-79
2023/03/02 13:54:02;;;;;;;15.65;8.45;;;12.70;99.90;;;;;;6280940;22;20011;-79
2023/03/02 13:56:31;;;;;;;14.07;8.23;;;12.90;99.90;;;;;;6280774;22;20340;-78
2023/03/02 13:58:57;;;;;;;16.92;8.90;;;13.10;99.90;;;;;;6280891;22;20082;-79
2023/03/02 14:01:23;;;;;;;17.45;10.05;;;13.10;99.90;;;;;;6275765;22;20124;-78
2023/03/02 14:03:48;;;;;;;20.27;11.05;;;13.10;99.90;;;;;;6276000;22;20023;-78
2023/03/02 14:06:17;;;;;;;19.30;10.75;;;13.20;99.90;;;;;;6277660;22;20022;-79
2023/03/02 14:08:43;;;;;;;22.63;11.63;;;13.10;99.90;;;;;;6276056;22;20015;-80
2023/03/02 14:11:10;;;;;;;22.20;11.60;;;13.10;99.90;;;;;;6277602;22;20011;-79
2023/03/02 14:13:39;;;;;;;21.13;11.43;;;13.00;99.90;;;;;;6275607;22;20043;-79
2023/03/02 14:16:05;;;;;;;21.20;10.20;;;12.90;99.90;;;;;;6275185;22;20069;-79
2023/03/02 14:18:40;;;;;;;17.80;10.05;;;12.90;99.90;;;;;;6277268;22;20012;-80
2023/03/02 14:21:13;;;;;;;;;;;12.90;99.90;;;;;;6275698;22;20101;-79
2023/03/02 14:23:42;;;;;;;18.40;10.10;;;13.00;99.90;;;;;;6275323;22;19961;-78
2023/03/02 14:26:46;;;;;;;15.13;8.75;;;13.20;99.90;;;;;;6274978;22;20041;-78
2023/03/02 14:29:17;;;;;;;16.60;9.35;;;13.20;99.90;;;;;;6264520;22;20326;-79
2023/03/02 14:31:42;;;;;;;19.08;9.82;;;13.30;99.90;;;;;;6274884;22;20019;-79
2023/03/02 14:34:12;;;;;;;16.92;9.43;;;13.30;99.90;;;;;;6275090;22;20043;-79
2023/03/02 14:36:38;;;;;;;16.67;9.15;;;13.20;99.90;;;;;;6276969;22;20061;-79
2023/03/02 14:39:11;;;;;;;16.25;8.95;;;13.20;99.90;;;;;;6276995;22;20078;-79
2023/03/02 14:41:37;;;;;;;14.18;8.32;;;13.10;99.90;;;;;;6276971;22;20014;-80
2023/03/02 14:44:03;;;;;;;15.10;8.27;;;13.00;99.90;;;;;;6275130;22;20429;-75
2023/03/02 14:46:29;;;;;;;14.07;7.97;;;12.90;99.90;;;;;;6275239;22;20012;-79
2023/03/02 14:48:54;;;;;;;14.88;7.97;;;12.80;99.90;;;;;;6275510;22;20290;-79
2023/03/02 14:51:25;;;;;;;12.40;7.50;;;12.70;99.90;;;;;;6275595;22;20020;-80
2023/03/02 14:53:53;;;;;;;14.23;8.43;;;12.60;99.90;;;;;;6277358;22;20480;-79
2023/03/02 14:56:22;;;;;;;14.98;8.35;;;12.70;99.90;;;;;;6278002;22;20019;-79
2023/03/02 14:58:49;;;;;;;12.55;7.45;;;12.80;99.90;;;;;;6275817;22;20464;-80
2023/03/02 15:01:15;;;;;;;15.88;7.82;;;12.80;99.90;;;;;;6275586;22;20024;-80
2023/03/02 15:03:41;;;;;;;13.43;8.02;;;12.70;99.90;;;;;;6276615;22;20389;-80
2023/03/02 15:06:28;;;;;;;13.30;7.20;;;12.80;99.90;;;;;;6250113;22;20020;-80
2023/03/02 15:08:56;;;;;;;13.38;7.90;;;12.70;99.90;;;;;;6275934;22;20380;-80
2023/03/02 15:11:22;;;;;;;12.23;6.90;;;12.60;99.90;;;;;;6275533;22;20090;-79
2023/03/02 15:13:48;;;;;;;12.88;6.95;;;12.60;99.90;;;;;;6275936;22;20027;-79
2023/03/02 15:16:14;;;;;;;11.55;6.70;;;12.60;99.90;;;;;;6275929;22;20016;-80
2023/03/02 15:18:40;;;;;;;10.02;6.10;;;12.60;99.90;;;;;;6277624;22;20047;-80
2023/03/02 15:21:06;;;;;;;10.60;6.45;;;12.60;99.90;;;;;;6274710;22;20019;-81
2023/03/02 15:23:32;;;;;;;10.30;6.22;;;12.50;99.90;;;;;;6276891;22;20333;-80
2023/03/02 15:26:02;;;;;;;10.30;5.93;;;12.70;99.90;;;;;;6275575;22;20037;-79
2023/03/02 15:28:28;;;;;;;10.02;5.70;;;12.80;99.90;;;;;;6277828;22;20011;-79
2023/03/02 15:30:54;;;;;;;9.85;6.03;;;12.80;99.90;;;;;;6275621;22;20011;-78
2023/03/02 15:33:21;;;;;;;9.95;6.28;;;12.90;99.90;;;;;;6275676;22;20432;-81
2023/03/02 15:35:51;;;;;;;10.25;6.10;;;12.90;99.90;;;;;;6275275;22;20081;-79
2023/03/02 15:38:18;;;;;;;11.18;6.35;;;13.00;99.90;;;;;;6275567;22;20020;-79
2023/03/02 15:40:43;;;;;;;11.15;6.45;;;13.10;99.90;;;;;;6275661;22;20061;-79
2023/03/02 15:43:09;;;;;;;10.27;6.10;;;13.20;99.90;;;;;;6277079;22;20375;-80
2023/03/02 15:45:34;;;;;;;12.10;6.13;;;13.10;99.90;;;;;;6277748;22;20014;-79
2023/03/02 15:48:00;;;;;;;11.70;6.82;;;13.10;99.90;;;;;;6250389;22;20008;-79
2023/03/02 15:50:26;;;;;;;10.57;6.30;;;13.10;99.90;;;;;;6277651;22;20022;-80
2023/03/02 15:52:51;;;;;;;11.93;6.85;;;13.00;99.90;;;;;;6275564;22;20011;-79
2023/03/02 15:55:17;;;;;;;11.75;6.85;;;12.80;99.90;;;;;;6250275;22;20345;-80
2023/03/02 15:57:43;;;;;;;11.20;6.40;;;12.60;99.90;;;;;;6275480;22;20012;-79
2023/03/02 16:00:12;;;;;;;11.70;7.47;;;12.50;99.90;;;;;;6275316;22;20015;-80
2023/03/02 16:02:38;;;;;;;13.80;8.13;;;12.50;99.90;;;;;;6275977;22;20019;-79
2023/03/02 16:05:04;;;;;;;17.67;10.13;;;12.50;99.90;;;;;;6279143;22;20014;-79
2023/03/02 16:07:30;;;;;;;14.88;10.15;;;12.60;99.90;;;;;;6279485;22;20007;-79
2023/03/02 16:09:56;;;;;;;17.58;10.10;;;12.70;99.90;;;;;;6277630;22;20078;-79
2023/03/02 16:12:24;;;;;;;17.20;10.55;;;12.70;99.90;;;;;;6276571;22;20026;-80
2023/03/02 16:14:50;;;;;;;15.50;10.35;;;12.80;99.90;;;;;;6276686;22;20015;-81
2023/03/02 16:17:18;;;;;;;18.27;11.07;;;12.80;99.90;;;;;;6277248;22;20018;-79
2023/03/02 16:19:45;;;;;;;19.30;11.38;;;12.50;99.90;;;;;;6278859;22;20008;-79
2023/03/02 16:22:10;;;;;;;17.02;11.00;;;12.20;99.90;;;;;;6277070;22;20063;-80
2023/03/02 16:24:36;;;;;;;19.30;11.35;;;12.00;99.90;;;;;;6276802;22;20057;-80
2023/03/02 16:27:01;;;;;;;17.05;11.35;;;11.80;99.90;;;;;;6277517;22;20138;-80
2023/03/02 16:29:27;;;;;;;19.40;11.27;;;11.60;99.90;;;;;;6279269;22;20012;-78
2023/03/02 16:31:53;;;;;;;20.73;12.23;;;11.30;99.90;;;;;;6277068;22;20117;-80
2023/03/02 16:34:19;;;;;;;17.70;11.05;;;11.00;99.90;;;;;;6278714;22;20086;-81
2023/03/02 16:36:45;;;;;;;18.20;11.70;;;10.80;99.90;;;;;;6276403;22;20031;-80
2023/03/02 16:39:12;;;;;;;19.98;11.55;;;10.50;99.90;;;;;;6276907;22;20401;-81
2023/03/02 16:41:39;;;;;;;18.27;11.55;;;10.20;99.90;;;;;;6276848;22;20050;-80
2023/03/02 16:44:05;;;;;;;20.85;11.88;;;9.80;99.90;;;;;;6276958;22;20026;-81
2023/03/02 16:46:35;;;;;;;21.02;12.02;;;9.50;99.90;;;;;;6276999;22;20077;-81